AVA8518 SKRG-SKRH
Flight info
| Callsign | AVA8518 |
|---|---|
| Flight time | 1h 0m |
| Altitude | 37000 |
| Route | BIVIG1B BIVIG DCT GERNA DCT ELB DCT ISLAG DCT VUP VUP1S |
| Aircraft | A320/M-SDE3FGHIRWY/LB1 |
Departure
| Time | 2026-05-09 01:37 |
|---|---|
| Airport | Jose Maria Córdova International Airport (SKRG) |
Arrival
| Time | 2026-05-09 02:37 |
|---|---|
| Airport | Almirante Padilla Airport (SKRH) |
| Time | Latitude | Longitude | Altitude | Speed | Heading |
|---|---|---|---|---|---|
| 2026-05-09 00:36 | 6.16980 | -75.42767 | 7018 ft | 0 kts | 329° |
| 2026-05-09 01:21 | 6.16970 | -75.42761 | 7019 ft | 4 kts | 340° |
| 2026-05-09 01:21 | 6.16945 | -75.42759 | 7018 ft | 4 kts | 21° |
| 2026-05-09 01:22 | 6.16924 | -75.42773 | 7018 ft | 4 kts | 57° |
| 2026-05-09 01:22 | 6.16919 | -75.42782 | 7018 ft | 0 kts | 67° |
| 2026-05-09 01:29 | 6.16925 | -75.42767 | 7020 ft | 7 kts | 67° |
| 2026-05-09 01:29 | 6.16950 | -75.42723 | 7020 ft | 8 kts | 54° |
| 2026-05-09 01:29 | 6.17019 | -75.42663 | 7017 ft | 17 kts | 36° |
| 2026-05-09 01:29 | 6.17038 | -75.42636 | 7018 ft | 6 kts | 66° |
| 2026-05-09 01:30 | 6.16987 | -75.42563 | 7015 ft | 20 kts | 150° |
| 2026-05-09 01:30 | 6.16833 | -75.42484 | 7004 ft | 29 kts | 187° |
| 2026-05-09 01:30 | 6.16672 | -75.42482 | 6992 ft | 19 kts | 182° |
| 2026-05-09 01:30 | 6.16528 | -75.42482 | 6990 ft | 22 kts | 180° |
| 2026-05-09 01:31 | 6.16358 | -75.42480 | 6982 ft | 26 kts | 179° |
| 2026-05-09 01:31 | 6.16176 | -75.42479 | 6978 ft | 25 kts | 181° |
| 2026-05-09 01:31 | 6.15996 | -75.42477 | 6976 ft | 26 kts | 179° |
| 2026-05-09 01:31 | 6.15811 | -75.42475 | 6975 ft | 27 kts | 179° |
| 2026-05-09 01:32 | 6.15746 | -75.42475 | 6975 ft | 4 kts | 180° |
| 2026-05-09 01:32 | 6.15726 | -75.42475 | 6975 ft | 2 kts | 180° |
| 2026-05-09 01:32 | 6.15717 | -75.42475 | 6975 ft | 3 kts | 180° |
| 2026-05-09 01:32 | 6.15664 | -75.42475 | 6975 ft | 12 kts | 180° |
| 2026-05-09 01:33 | 6.15551 | -75.42475 | 6976 ft | 20 kts | 179° |
| 2026-05-09 01:33 | 6.15384 | -75.42472 | 6977 ft | 27 kts | 179° |
| 2026-05-09 01:33 | 6.15179 | -75.42472 | 6977 ft | 24 kts | 181° |
| 2026-05-09 01:33 | 6.14996 | -75.42472 | 6978 ft | 25 kts | 179° |
| 2026-05-09 01:34 | 6.14900 | -75.42462 | 6977 ft | 10 kts | 148° |
| 2026-05-09 01:34 | 6.14886 | -75.42424 | 6976 ft | 5 kts | 89° |
| 2026-05-09 01:34 | 6.14886 | -75.42420 | 6976 ft | 0 kts | 88° |
| 2026-05-09 01:35 | 6.14887 | -75.42397 | 6975 ft | 8 kts | 88° |
| 2026-05-09 01:35 | 6.14909 | -75.42319 | 6976 ft | 16 kts | 44° |
| 2026-05-09 01:36 | 6.14943 | -75.42299 | 6977 ft | 0 kts | 0° |
| 2026-05-09 01:36 | 6.15093 | -75.42299 | 6980 ft | 56 kts | 0° |
| 2026-05-09 01:36 | 6.15723 | -75.42302 | 6980 ft | 121 kts | 359° |
| 2026-05-09 01:37 | 6.16733 | -75.42301 | 6996 ft | 170 kts | 1° |
| 2026-05-09 01:37 | 6.17971 | -75.42264 | 7539 ft | 179 kts | 1° |
| 2026-05-09 01:37 | 6.19234 | -75.42242 | 8266 ft | 183 kts | 2° |
| 2026-05-09 01:37 | 6.20567 | -75.42243 | 8642 ft | 200 kts | 5° |
| 2026-05-09 01:38 | 6.21889 | -75.41721 | 8773 ft | 217 kts | 46° |
| 2026-05-09 01:38 | 6.22566 | -75.40327 | 8932 ft | 238 kts | 84° |
| 2026-05-09 01:38 | 6.22661 | -75.38582 | 9171 ft | 261 kts | 85° |
| 2026-05-09 01:38 | 6.23070 | -75.36734 | 9465 ft | 282 kts | 70° |
| 2026-05-09 01:39 | 6.23854 | -75.34893 | 10055 ft | 291 kts | 65° |
| 2026-05-09 01:39 | 6.24803 | -75.33037 | 10382 ft | 309 kts | 62° |
| 2026-05-09 01:39 | 6.25856 | -75.31071 | 10583 ft | 329 kts | 62° |
| 2026-05-09 01:39 | 6.26945 | -75.29018 | 11139 ft | 335 kts | 62° |
| 2026-05-09 01:40 | 6.28013 | -75.26950 | 11753 ft | 339 kts | 63° |
| 2026-05-09 01:40 | 6.29333 | -75.24981 | 12354 ft | 343 kts | 44° |
| 2026-05-09 01:40 | 6.31388 | -75.23755 | 12949 ft | 349 kts | 18° |
| 2026-05-09 01:40 | 6.33796 | -75.23393 | 13457 ft | 354 kts | 2° |
| 2026-05-09 01:41 | 6.36273 | -75.23518 | 14051 ft | 357 kts | 355° |
| 2026-05-09 01:41 | 6.38753 | -75.23816 | 14598 ft | 361 kts | 354° |
| 2026-05-09 01:41 | 6.41250 | -75.24106 | 15121 ft | 363 kts | 355° |
| 2026-05-09 01:41 | 6.43789 | -75.24310 | 15657 ft | 366 kts | 357° |
| 2026-05-09 01:42 | 6.46344 | -75.24404 | 16181 ft | 369 kts | 0° |
| 2026-05-09 01:42 | 6.48914 | -75.24315 | 16701 ft | 372 kts | 4° |
| 2026-05-09 01:42 | 6.51500 | -75.24091 | 17230 ft | 375 kts | 6° |
| 2026-05-09 01:42 | 6.54114 | -75.23801 | 17733 ft | 378 kts | 6° |
| 2026-05-09 01:43 | 6.56742 | -75.23498 | 18234 ft | 382 kts | 6° |
| 2026-05-09 01:43 | 6.59391 | -75.23210 | 18655 ft | 385 kts | 5° |
| 2026-05-09 01:43 | 6.62069 | -75.22946 | 19085 ft | 388 kts | 5° |
| 2026-05-09 01:43 | 6.64733 | -75.22704 | 19507 ft | 391 kts | 5° |
| 2026-05-09 01:44 | 6.67453 | -75.22469 | 19943 ft | 393 kts | 5° |
| 2026-05-09 01:44 | 6.70185 | -75.22238 | 20378 ft | 396 kts | 5° |
| 2026-05-09 01:44 | 6.72940 | -75.22009 | 20802 ft | 398 kts | 5° |
| 2026-05-09 01:44 | 6.75714 | -75.21779 | 21217 ft | 401 kts | 6° |
| 2026-05-09 01:45 | 6.78497 | -75.21545 | 21608 ft | 403 kts | 6° |
| 2026-05-09 01:45 | 6.81299 | -75.21304 | 22008 ft | 405 kts | 6° |
| 2026-05-09 01:45 | 6.84114 | -75.21059 | 22398 ft | 408 kts | 6° |
| 2026-05-09 01:45 | 6.86959 | -75.20813 | 22807 ft | 410 kts | 6° |
| 2026-05-09 01:46 | 6.89818 | -75.20566 | 23195 ft | 413 kts | 6° |
| 2026-05-09 01:46 | 6.92683 | -75.20318 | 23553 ft | 415 kts | 6° |
| 2026-05-09 01:46 | 6.95570 | -75.20069 | 23867 ft | 417 kts | 6° |
| 2026-05-09 01:46 | 6.98470 | -75.19816 | 24195 ft | 419 kts | 6° |
| 2026-05-09 01:47 | 7.01292 | -75.19347 | 24511 ft | 420 kts | 15° |
| 2026-05-09 01:47 | 7.04053 | -75.18381 | 24838 ft | 420 kts | 25° |
| 2026-05-09 01:47 | 7.06235 | -75.17240 | 25078 ft | 421 kts | 29° |
| 2026-05-09 01:47 | 7.08812 | -75.15823 | 25403 ft | 423 kts | 29° |
| 2026-05-09 01:48 | 7.11400 | -75.14406 | 25722 ft | 425 kts | 29° |
| 2026-05-09 01:48 | 7.14003 | -75.12987 | 26045 ft | 427 kts | 29° |
| 2026-05-09 01:48 | 7.16621 | -75.11562 | 26363 ft | 429 kts | 29° |
| 2026-05-09 01:48 | 7.19254 | -75.10127 | 26670 ft | 431 kts | 29° |
| 2026-05-09 01:49 | 7.21890 | -75.08688 | 26981 ft | 432 kts | 29° |
| 2026-05-09 01:49 | 7.24533 | -75.07245 | 27294 ft | 434 kts | 29° |
| 2026-05-09 01:49 | 7.27193 | -75.05792 | 27603 ft | 436 kts | 29° |
| 2026-05-09 01:49 | 7.29869 | -75.04331 | 27892 ft | 437 kts | 29° |
| 2026-05-09 01:50 | 7.32550 | -75.02867 | 28172 ft | 439 kts | 29° |
| 2026-05-09 01:50 | 7.35238 | -75.01396 | 28429 ft | 442 kts | 29° |
| 2026-05-09 01:50 | 7.37953 | -74.99908 | 28711 ft | 444 kts | 29° |
| 2026-05-09 01:50 | 7.40671 | -74.98422 | 28987 ft | 446 kts | 28° |
| 2026-05-09 01:51 | 7.43366 | -74.96950 | 29249 ft | 448 kts | 29° |
| 2026-05-09 01:51 | 7.46113 | -74.95450 | 29525 ft | 450 kts | 29° |
| 2026-05-09 01:51 | 7.48868 | -74.93945 | 29781 ft | 451 kts | 28° |
| 2026-05-09 01:51 | 7.51637 | -74.92431 | 30027 ft | 453 kts | 28° |
| 2026-05-09 01:52 | 7.54405 | -74.90916 | 30244 ft | 455 kts | 28° |
| 2026-05-09 01:52 | 7.57194 | -74.89387 | 30468 ft | 456 kts | 28° |
| 2026-05-09 01:52 | 7.59987 | -74.87856 | 30679 ft | 458 kts | 28° |
| 2026-05-09 01:52 | 7.62786 | -74.86321 | 30881 ft | 459 kts | 29° |
| 2026-05-09 01:53 | 7.65572 | -74.84724 | 31098 ft | 460 kts | 31° |
| 2026-05-09 01:53 | 7.68303 | -74.83049 | 31374 ft | 460 kts | 32° |
| 2026-05-09 01:53 | 7.70999 | -74.81322 | 31706 ft | 458 kts | 33° |
| 2026-05-09 01:53 | 7.73668 | -74.79581 | 32063 ft | 456 kts | 33° |
| 2026-05-09 01:54 | 7.76326 | -74.77849 | 32408 ft | 455 kts | 33° |
| 2026-05-09 01:54 | 7.78988 | -74.76136 | 32719 ft | 454 kts | 32° |
| 2026-05-09 01:54 | 7.81666 | -74.74436 | 33038 ft | 453 kts | 32° |
| 2026-05-09 01:54 | 7.84331 | -74.72759 | 33363 ft | 452 kts | 32° |
| 2026-05-09 01:55 | 7.86997 | -74.71087 | 33689 ft | 451 kts | 32° |
| 2026-05-09 01:55 | 7.89664 | -74.69414 | 33866 ft | 451 kts | 32° |
| 2026-05-09 01:55 | 7.94928 | -74.66100 | 33887 ft | 440 kts | 32° |
| 2026-05-09 01:56 | 8.00098 | -74.62841 | 33903 ft | 437 kts | 32° |
| 2026-05-09 01:56 | 8.05217 | -74.59611 | 33896 ft | 437 kts | 32° |
| 2026-05-09 01:57 | 8.10391 | -74.56347 | 33893 ft | 440 kts | 32° |
| 2026-05-09 01:57 | 8.15583 | -74.53065 | 33892 ft | 440 kts | 32° |
| 2026-05-09 01:58 | 8.20774 | -74.49782 | 33895 ft | 440 kts | 32° |
| 2026-05-09 01:58 | 8.25980 | -74.46498 | 33897 ft | 440 kts | 32° |
| 2026-05-09 01:59 | 8.31169 | -74.43220 | 33899 ft | 440 kts | 32° |
| 2026-05-09 01:59 | 8.36371 | -74.39930 | 33887 ft | 441 kts | 32° |
| 2026-05-09 02:00 | 8.41559 | -74.36642 | 33892 ft | 441 kts | 32° |
| 2026-05-09 02:00 | 8.46757 | -74.33354 | 33909 ft | 441 kts | 32° |
| 2026-05-09 02:01 | 8.51965 | -74.30059 | 33890 ft | 441 kts | 32° |
| 2026-05-09 02:01 | 8.57121 | -74.26793 | 33889 ft | 440 kts | 32° |
| 2026-05-09 02:02 | 8.62313 | -74.23506 | 33870 ft | 440 kts | 32° |
| 2026-05-09 02:02 | 8.67508 | -74.20215 | 33870 ft | 440 kts | 32° |
| 2026-05-09 02:03 | 8.72689 | -74.16931 | 33870 ft | 440 kts | 31° |
| 2026-05-09 02:03 | 8.77879 | -74.13644 | 33862 ft | 440 kts | 31° |
| 2026-05-09 02:04 | 8.83068 | -74.10351 | 33857 ft | 440 kts | 31° |
| 2026-05-09 02:04 | 8.88256 | -74.07052 | 33857 ft | 440 kts | 32° |
| 2026-05-09 02:05 | 8.93450 | -74.03754 | 33855 ft | 440 kts | 31° |
| 2026-05-09 02:05 | 8.98605 | -74.00490 | 33855 ft | 440 kts | 31° |
| 2026-05-09 02:06 | 9.03812 | -73.97212 | 33849 ft | 441 kts | 28° |
| 2026-05-09 02:07 | 9.12269 | -73.93573 | 33850 ft | 440 kts | 21° |
| 2026-05-09 02:07 | 9.17957 | -73.91261 | 33859 ft | 440 kts | 21° |
| 2026-05-09 02:08 | 9.23626 | -73.88955 | 33861 ft | 439 kts | 21° |
| 2026-05-09 02:08 | 9.29287 | -73.86644 | 33859 ft | 438 kts | 21° |
| 2026-05-09 02:09 | 9.34935 | -73.84337 | 33858 ft | 438 kts | 21° |
| 2026-05-09 02:09 | 9.40588 | -73.82036 | 33854 ft | 438 kts | 21° |
| 2026-05-09 02:10 | 9.46227 | -73.79741 | 33855 ft | 437 kts | 21° |
| 2026-05-09 02:10 | 9.51874 | -73.77436 | 33858 ft | 437 kts | 21° |
| 2026-05-09 02:11 | 9.57473 | -73.75148 | 33856 ft | 437 kts | 21° |
| 2026-05-09 02:11 | 9.63116 | -73.72849 | 33856 ft | 436 kts | 21° |
| 2026-05-09 02:12 | 9.68742 | -73.70518 | 33854 ft | 436 kts | 25° |
| 2026-05-09 02:12 | 9.73995 | -73.67450 | 33849 ft | 436 kts | 30° |
| 2026-05-09 02:13 | 9.79219 | -73.64298 | 33846 ft | 437 kts | 30° |
| 2026-05-09 02:13 | 9.84445 | -73.61158 | 33846 ft | 438 kts | 30° |
| 2026-05-09 02:14 | 9.88815 | -73.58527 | 33846 ft | 439 kts | 30° |
| 2026-05-09 02:14 | 9.94065 | -73.55358 | 33850 ft | 439 kts | 30° |
| 2026-05-09 02:15 | 9.99317 | -73.52198 | 33315 ft | 438 kts | 30° |
| 2026-05-09 02:15 | 10.01929 | -73.50622 | 32811 ft | 435 kts | 30° |
| 2026-05-09 02:15 | 10.04524 | -73.49057 | 32291 ft | 432 kts | 30° |
| 2026-05-09 02:15 | 10.07100 | -73.47502 | 31777 ft | 429 kts | 30° |
| 2026-05-09 02:16 | 10.09653 | -73.45962 | 31274 ft | 426 kts | 31° |
| 2026-05-09 02:16 | 10.12187 | -73.44434 | 30763 ft | 423 kts | 31° |
| 2026-05-09 02:16 | 10.14714 | -73.42911 | 30304 ft | 420 kts | 31° |
| 2026-05-09 02:16 | 10.17220 | -73.41401 | 29791 ft | 417 kts | 31° |
| 2026-05-09 02:17 | 10.19705 | -73.39903 | 29301 ft | 413 kts | 31° |
| 2026-05-09 02:17 | 10.22152 | -73.38427 | 28841 ft | 407 kts | 31° |
| 2026-05-09 02:17 | 10.24569 | -73.36967 | 28401 ft | 402 kts | 31° |
| 2026-05-09 02:17 | 10.26954 | -73.35523 | 27961 ft | 397 kts | 31° |
| 2026-05-09 02:18 | 10.29315 | -73.34094 | 27523 ft | 392 kts | 32° |
| 2026-05-09 02:18 | 10.31700 | -73.32646 | 27075 ft | 408 kts | 32° |
| 2026-05-09 02:18 | 10.34128 | -73.31174 | 26713 ft | 402 kts | 32° |
| 2026-05-09 02:18 | 10.36489 | -73.29748 | 26190 ft | 390 kts | 32° |
| 2026-05-09 02:19 | 10.38794 | -73.28358 | 25697 ft | 376 kts | 32° |
| 2026-05-09 02:19 | 10.40991 | -73.27030 | 25264 ft | 372 kts | 33° |
| 2026-05-09 02:19 | 10.43205 | -73.25691 | 24812 ft | 369 kts | 32° |
| 2026-05-09 02:19 | 10.45523 | -73.24573 | 24330 ft | 371 kts | 22° |
| 2026-05-09 02:20 | 10.47981 | -73.23760 | 23849 ft | 371 kts | 21° |
| 2026-05-09 02:20 | 10.50430 | -73.22962 | 23338 ft | 371 kts | 21° |
| 2026-05-09 02:20 | 10.52884 | -73.22165 | 22805 ft | 369 kts | 21° |
| 2026-05-09 02:20 | 10.55323 | -73.21373 | 22391 ft | 366 kts | 21° |
| 2026-05-09 02:21 | 10.57754 | -73.20583 | 21914 ft | 364 kts | 21° |
| 2026-05-09 02:21 | 10.60163 | -73.19797 | 21459 ft | 363 kts | 21° |
| 2026-05-09 02:21 | 10.62565 | -73.19011 | 20992 ft | 361 kts | 21° |
| 2026-05-09 02:21 | 10.64962 | -73.18225 | 20529 ft | 360 kts | 21° |
| 2026-05-09 02:22 | 10.67341 | -73.17442 | 20069 ft | 359 kts | 20° |
| 2026-05-09 02:22 | 10.69726 | -73.16660 | 19610 ft | 359 kts | 20° |
| 2026-05-09 02:22 | 10.72113 | -73.15880 | 19154 ft | 359 kts | 20° |
| 2026-05-09 02:22 | 10.74492 | -73.15102 | 18698 ft | 360 kts | 20° |
| 2026-05-09 02:23 | 10.76876 | -73.14321 | 18245 ft | 360 kts | 20° |
| 2026-05-09 02:23 | 10.79256 | -73.13539 | 17782 ft | 358 kts | 20° |
| 2026-05-09 02:23 | 10.81589 | -73.12772 | 17341 ft | 356 kts | 20° |
| 2026-05-09 02:23 | 10.83928 | -73.12005 | 17050 ft | 350 kts | 20° |
| 2026-05-09 02:24 | 10.86223 | -73.11255 | 16501 ft | 343 kts | 20° |
| 2026-05-09 02:24 | 10.88459 | -73.10523 | 16183 ft | 336 kts | 20° |
| 2026-05-09 02:24 | 10.90693 | -73.09789 | 15795 ft | 346 kts | 20° |
| 2026-05-09 02:24 | 10.93052 | -73.09033 | 15344 ft | 359 kts | 19° |
| 2026-05-09 02:25 | 10.95443 | -73.08321 | 14906 ft | 360 kts | 18° |
| 2026-05-09 02:25 | 10.97847 | -73.07638 | 14477 ft | 358 kts | 18° |
| 2026-05-09 02:25 | 11.00254 | -73.06965 | 14036 ft | 357 kts | 18° |
| 2026-05-09 02:25 | 11.02684 | -73.06427 | 13559 ft | 357 kts | 7° |
| 2026-05-09 02:26 | 11.05161 | -73.06580 | 13117 ft | 358 kts | 350° |
| 2026-05-09 02:26 | 11.07477 | -73.07476 | 12870 ft | 353 kts | 336° |
| 2026-05-09 02:26 | 11.09594 | -73.08566 | 12617 ft | 341 kts | 336° |
| 2026-05-09 02:26 | 11.11719 | -73.09650 | 12170 ft | 334 kts | 336° |
| 2026-05-09 02:27 | 11.13786 | -73.10697 | 11463 ft | 331 kts | 336° |
| 2026-05-09 02:27 | 11.15799 | -73.11713 | 10981 ft | 321 kts | 336° |
| 2026-05-09 02:27 | 11.17762 | -73.12705 | 10557 ft | 310 kts | 336° |
| 2026-05-09 02:27 | 11.19670 | -73.13672 | 10157 ft | 301 kts | 336° |
| 2026-05-09 02:28 | 11.21517 | -73.14610 | 9746 ft | 293 kts | 336° |
| 2026-05-09 02:28 | 11.23318 | -73.15525 | 9326 ft | 284 kts | 336° |
| 2026-05-09 02:28 | 11.25059 | -73.16411 | 8944 ft | 278 kts | 336° |
| 2026-05-09 02:28 | 11.26790 | -73.17288 | 8531 ft | 279 kts | 336° |
| 2026-05-09 02:29 | 11.28597 | -73.18199 | 8151 ft | 295 kts | 336° |
| 2026-05-09 02:29 | 11.30455 | -73.19138 | 7767 ft | 299 kts | 336° |
| 2026-05-09 02:29 | 11.32314 | -73.20082 | 7374 ft | 298 kts | 335° |
| 2026-05-09 02:29 | 11.34175 | -73.21031 | 6847 ft | 303 kts | 335° |
| 2026-05-09 02:30 | 11.36051 | -73.21981 | 6546 ft | 297 kts | 337° |
| 2026-05-09 02:30 | 11.38001 | -73.22553 | 5922 ft | 289 kts | 358° |
| 2026-05-09 02:30 | 11.39959 | -73.22400 | 5430 ft | 276 kts | 18° |
| 2026-05-09 02:30 | 11.41663 | -73.21652 | 4971 ft | 262 kts | 36° |
| 2026-05-09 02:31 | 11.43057 | -73.20523 | 4553 ft | 250 kts | 43° |
| 2026-05-09 02:31 | 11.44365 | -73.19396 | 4144 ft | 243 kts | 44° |
| 2026-05-09 02:31 | 11.45486 | -73.18178 | 3981 ft | 228 kts | 52° |
| 2026-05-09 02:31 | 11.46503 | -73.16950 | 3907 ft | 224 kts | 52° |
| 2026-05-09 02:32 | 11.47486 | -73.15772 | 3816 ft | 214 kts | 52° |
| 2026-05-09 02:32 | 11.48433 | -73.14640 | 3726 ft | 205 kts | 53° |
| 2026-05-09 02:32 | 11.49330 | -73.13567 | 3645 ft | 198 kts | 52° |
| 2026-05-09 02:32 | 11.50211 | -73.12507 | 3553 ft | 195 kts | 53° |
| 2026-05-09 02:33 | 11.51086 | -73.11450 | 3448 ft | 194 kts | 53° |
| 2026-05-09 02:33 | 11.51858 | -73.10337 | 3364 ft | 192 kts | 68° |
| 2026-05-09 02:33 | 11.52164 | -73.09016 | 3158 ft | 193 kts | 89° |
| 2026-05-09 02:33 | 11.52191 | -73.07648 | 2875 ft | 194 kts | 89° |
| 2026-05-09 02:34 | 11.52228 | -73.06267 | 2604 ft | 195 kts | 88° |
| 2026-05-09 02:34 | 11.52268 | -73.04895 | 2356 ft | 191 kts | 89° |
| 2026-05-09 02:34 | 11.52308 | -73.03556 | 2080 ft | 185 kts | 89° |
| 2026-05-09 02:34 | 11.52345 | -73.02286 | 1823 ft | 174 kts | 89° |
| 2026-05-09 02:35 | 11.52380 | -73.01120 | 1603 ft | 159 kts | 89° |
| 2026-05-09 02:35 | 11.52410 | -73.00041 | 1392 ft | 146 kts | 88° |
| 2026-05-09 02:35 | 11.52437 | -72.99027 | 1213 ft | 143 kts | 89° |
| 2026-05-09 02:35 | 11.52464 | -72.98021 | 1025 ft | 143 kts | 88° |
| 2026-05-09 02:36 | 11.52491 | -72.97011 | 840 ft | 142 kts | 88° |
| 2026-05-09 02:36 | 11.52524 | -72.96000 | 627 ft | 142 kts | 87° |
| 2026-05-09 02:36 | 11.52567 | -72.94996 | 440 ft | 142 kts | 85° |
| 2026-05-09 02:36 | 11.52589 | -72.93995 | 209 ft | 138 kts | 91° |
| 2026-05-09 02:37 | 11.52599 | -72.93072 | 49 ft | 122 kts | 85° |
| 2026-05-09 02:37 | 11.52622 | -72.92477 | 50 ft | 50 kts | 88° |
| 2026-05-09 02:37 | 11.52630 | -72.92200 | 52 ft | 33 kts | 88° |
| 2026-05-09 02:37 | 11.52636 | -72.91991 | 53 ft | 13 kts | 91° |
| 2026-05-09 02:38 | 11.52641 | -72.91924 | 51 ft | 1 kts | 70° |
| 2026-05-09 02:38 | 11.52654 | -72.91909 | 53 ft | 9 kts | 38° |
| 2026-05-09 02:38 | 11.52719 | -72.91903 | 52 ft | 9 kts | 359° |
| 2026-05-09 02:39 | 11.52762 | -72.91906 | 52 ft | 5 kts | 356° |
| 2026-05-09 02:39 | 11.52784 | -72.91907 | 52 ft | 0 kts | 358° |
| 2026-05-09 02:39 | 11.52787 | -72.91906 | 52 ft | 0 kts | 4° |
| 2026-05-09 02:40 | 11.52790 | -72.91905 | 52 ft | 0 kts | 6° |
| 2026-05-09 02:40 | 11.52792 | -72.91906 | 52 ft | 0 kts | 356° |
| 2026-05-09 02:40 | 11.52795 | -72.91906 | 52 ft | 0 kts | 359° |
| 2026-05-09 02:41 | 11.52796 | -72.91906 | 52 ft | 0 kts | 358° |